createdAt,value
2018-07-09T00:02:13.194Z,59.80
2018-07-09T00:04:44.101Z,57.30
2018-07-09T00:07:14.677Z,59.00
2018-07-09T00:12:15.629Z,58.00
2018-07-09T00:14:46.325Z,58.20
2018-07-09T00:17:17.638Z,59.20
2018-07-09T00:19:48.352Z,58.40
2018-07-09T00:22:18.940Z,59.40
2018-07-09T00:24:49.696Z,59.00
2018-07-09T00:27:20.384Z,59.40
2018-07-09T00:29:50.994Z,60.10
2018-07-09T00:32:21.698Z,60.90
2018-07-09T00:34:53.231Z,60.50
2018-07-09T00:37:23.963Z,59.20
2018-07-09T00:39:54.701Z,60.30
2018-07-09T00:42:25.308Z,60.00
2018-07-09T00:44:56.398Z,59.40
2018-07-09T00:49:57.665Z,62.30
2018-07-09T00:52:28.446Z,61.20
2018-07-09T00:54:59.154Z,62.00
2018-07-09T00:57:29.864Z,59.00
2018-07-09T01:00:00.367Z,60.00
2018-07-09T01:02:31.088Z,60.10
2018-07-09T01:05:01.857Z,57.60
2018-07-09T01:10:02.530Z,60.50
2018-07-09T01:12:33.049Z,61.50
2018-07-09T01:15:03.686Z,61.10
2018-07-09T01:17:34.295Z,59.80
2018-07-09T01:20:05.130Z,60.40
2018-07-09T01:22:35.708Z,64.10
2018-07-09T01:25:06.606Z,63.30
2018-07-09T01:27:37.210Z,63.40
2018-07-09T01:30:11.574Z,63.10
2018-07-09T01:32:42.411Z,63.70
2018-07-09T01:35:13.884Z,63.90
2018-07-09T01:37:44.371Z,63.70
2018-07-09T01:42:45.219Z,63.60
2018-07-09T01:45:15.745Z,65.30
2018-07-09T01:47:46.531Z,64.00
2018-07-09T01:50:17.232Z,62.00
2018-07-09T01:52:47.810Z,63.80
2018-07-09T01:55:18.403Z,64.30
2018-07-09T01:57:49.640Z,62.10
2018-07-09T02:00:20.361Z,63.30
2018-07-09T02:05:21.114Z,63.80
2018-07-09T02:07:54.700Z,63.10
2018-07-09T02:10:25.277Z,63.30
2018-07-09T02:12:55.883Z,61.50
2018-07-09T02:17:56.449Z,64.00
2018-07-09T02:20:27.668Z,63.20
2018-07-09T02:22:58.474Z,63.20
2018-07-09T02:25:29.043Z,64.10
2018-07-09T02:27:59.680Z,66.70
2018-07-09T02:30:30.147Z,65.00
2018-07-09T02:33:00.716Z,65.10
2018-07-09T02:35:31.293Z,66.80
2018-07-09T02:38:02.112Z,66.60
2018-07-09T02:40:32.740Z,64.70
2018-07-09T02:43:03.426Z,67.00
2018-07-09T02:45:34.236Z,67.40
2018-07-09T02:48:05.054Z,68.90
2018-07-09T02:50:35.797Z,68.90
2018-07-09T02:53:06.473Z,68.40
2018-07-09T02:55:37.041Z,66.70
2018-07-09T02:58:07.581Z,69.20
2018-07-09T03:00:38.151Z,69.30
2018-07-09T03:03:08.766Z,68.60
2018-07-09T03:05:39.266Z,69.50
2018-07-09T03:08:09.995Z,70.50
2018-07-09T03:10:40.741Z,70.40
2018-07-09T03:13:11.450Z,71.30
2018-07-09T03:15:42.131Z,72.00
2018-07-09T03:18:12.826Z,71.80
2018-07-09T03:20:43.572Z,72.10
2018-07-09T03:23:14.171Z,71.80
2018-07-09T03:25:44.745Z,72.70
2018-07-09T03:28:15.370Z,73.80
2018-07-09T03:30:46.059Z,73.10
2018-07-09T03:33:16.513Z,72.50
2018-07-09T03:35:47.128Z,71.20
2018-07-09T03:38:17.674Z,73.70
2018-07-09T03:48:18.885Z,74.90
2018-07-09T03:50:49.390Z,75.40
2018-07-09T03:55:50.153Z,76.00
2018-07-09T03:58:20.736Z,76.60
2018-07-09T04:00:51.492Z,76.00
2018-07-09T04:03:22.338Z,76.00
2018-07-09T04:05:52.974Z,77.20
2018-07-09T04:08:23.802Z,76.80
2018-07-09T04:10:54.476Z,77.10
2018-07-09T04:13:25.949Z,76.00
2018-07-09T04:15:56.528Z,75.30
2018-07-09T04:21:00.531Z,74.80
2018-07-09T04:23:31.042Z,74.80
2018-07-09T04:26:01.613Z,73.70
2018-07-09T04:31:02.393Z,73.40
2018-07-09T04:33:32.942Z,73.10
2018-07-09T04:36:03.651Z,73.30
2018-07-09T04:38:34.294Z,72.60
2018-07-09T04:41:04.916Z,72.60
2018-07-09T04:43:35.441Z,73.00
2018-07-09T04:46:06.393Z,72.70
2018-07-09T04:48:37.140Z,72.90
2018-07-09T04:51:08.056Z,72.30
2018-07-09T04:53:38.607Z,72.50
2018-07-09T04:56:09.287Z,72.70
2018-07-09T04:58:39.965Z,72.60
2018-07-09T05:01:10.580Z,72.20
2018-07-09T05:03:42.171Z,71.40
2018-07-09T05:06:13.669Z,70.90
2018-07-09T05:08:44.307Z,70.80
2018-07-09T05:11:14.803Z,70.50
2018-07-09T05:13:45.347Z,71.20
2018-07-09T05:16:16.501Z,69.80
2018-07-09T05:18:47.313Z,69.10
2018-07-09T05:21:17.804Z,69.10
2018-07-09T05:23:48.445Z,68.70
2018-07-09T05:26:19.178Z,67.70
2018-07-09T05:28:49.735Z,65.40
2018-07-09T05:31:20.521Z,65.60
2018-07-09T05:33:51.137Z,65.00
2018-07-09T05:36:21.808Z,64.90
2018-07-09T05:38:52.518Z,63.90
2018-07-09T05:41:23.239Z,60.20
2018-07-09T05:46:27.016Z,51.70
2018-07-09T05:49:00.619Z,47.20
2018-07-09T05:51:31.169Z,45.70
2018-07-09T05:54:01.838Z,43.30
2018-07-09T05:56:32.456Z,40.70
2018-07-09T05:59:03.213Z,39.00
2018-07-09T06:01:33.660Z,38.40
2018-07-09T06:04:04.261Z,37.40
2018-07-09T06:06:34.802Z,36.20
2018-07-09T06:09:07.112Z,34.80
2018-07-09T06:11:38.517Z,33.60
2018-07-09T06:14:09.148Z,32.00
2018-07-09T06:16:39.632Z,33.30
2018-07-09T06:19:10.356Z,34.00
2018-07-09T06:21:40.879Z,33.80
2018-07-09T06:24:11.581Z,31.80
2018-07-09T06:26:45.249Z,30.70
2018-07-09T06:29:15.761Z,29.90
2018-07-09T06:31:46.313Z,30.30
2018-07-09T06:34:16.791Z,29.30
2018-07-09T06:36:47.283Z,29.00
2018-07-09T06:39:17.890Z,29.40
2018-07-09T06:41:48.626Z,29.40
2018-07-09T06:44:19.296Z,28.40
2018-07-09T06:46:49.925Z,28.50
2018-07-09T06:51:50.632Z,28.30
2018-07-09T06:54:21.081Z,28.30
2018-07-09T06:59:21.831Z,28.60
2018-07-09T07:01:52.455Z,28.10
2018-07-09T07:06:53.817Z,28.00
2018-07-09T07:09:24.263Z,27.20
2018-07-09T07:11:55.045Z,27.40
2018-07-09T07:14:25.645Z,27.30
2018-07-09T07:16:56.251Z,27.70
2018-07-09T07:19:27.610Z,26.50
2018-07-09T07:24:28.363Z,27.80
2018-07-09T07:26:59.188Z,28.90
2018-07-09T07:29:30.084Z,27.70
2018-07-09T07:32:00.777Z,28.80
2018-07-09T07:34:31.366Z,29.00
2018-07-09T07:37:01.947Z,27.20
2018-07-09T07:39:32.460Z,27.90
2018-07-09T07:42:03.322Z,27.00
2018-07-09T07:44:33.914Z,27.10
2018-07-09T07:47:04.547Z,26.70
2018-07-09T07:52:05.223Z,27.50
2018-07-09T07:54:35.718Z,28.20
2018-07-09T07:57:06.631Z,29.90
2018-07-09T07:59:37.344Z,31.40
2018-07-09T08:02:08.032Z,32.20
2018-07-09T08:04:38.552Z,32.20
2018-07-09T08:07:09.059Z,30.40
2018-07-09T08:09:39.670Z,30.80
2018-07-09T08:13:00.561Z,29.50
2018-07-09T08:14:41.310Z,29.60
2018-07-09T08:17:11.926Z,29.30
2018-07-09T08:19:42.449Z,29.00
2018-07-09T08:22:13.110Z,29.00
2018-07-09T08:24:43.783Z,29.60
2018-07-09T08:27:14.386Z,27.40
2018-07-09T08:29:44.939Z,28.10
2018-07-09T08:32:15.440Z,28.50
2018-07-09T08:34:46.132Z,29.00
2018-07-09T08:37:16.927Z,29.10
2018-07-09T08:39:47.548Z,28.80
2018-07-09T08:42:18.168Z,29.20
2018-07-09T08:44:48.898Z,28.80
2018-07-09T08:47:19.644Z,27.90
2018-07-09T08:49:50.537Z,28.00
2018-07-09T08:52:21.345Z,28.20
2018-07-09T08:54:52.579Z,28.40
2018-07-09T08:57:23.274Z,29.70
2018-07-09T08:59:53.956Z,29.70
2018-07-09T09:02:24.653Z,28.60
2018-07-09T09:04:55.835Z,28.60
2018-07-09T09:07:26.452Z,27.90
2018-07-09T09:09:57.189Z,28.30
2018-07-09T09:12:27.775Z,28.30
2018-07-09T09:14:58.412Z,27.70
2018-07-09T09:17:29.260Z,27.30
2018-07-09T09:19:59.956Z,27.80
2018-07-09T09:22:30.937Z,26.30
2018-07-09T09:25:01.633Z,27.10
2018-07-09T09:27:32.109Z,27.90
2018-07-09T09:30:02.776Z,25.90
2018-07-09T09:32:33.536Z,27.20
2018-07-09T09:35:04.403Z,26.60
2018-07-09T09:37:35.178Z,27.40
2018-07-09T09:40:05.813Z,26.40
2018-07-09T09:42:36.583Z,26.50
2018-07-09T09:45:07.277Z,26.30
2018-07-09T09:47:37.943Z,27.80
2018-07-09T09:50:08.460Z,27.00
2018-07-09T09:52:39.125Z,28.00
2018-07-09T09:55:09.919Z,28.10
2018-07-09T09:57:40.986Z,26.20
2018-07-09T10:00:11.528Z,26.30
2018-07-09T10:02:42.156Z,25.00
2018-07-09T10:05:12.763Z,25.00
2018-07-09T10:07:43.217Z,26.80
2018-07-09T10:12:43.990Z,24.10
2018-07-09T10:15:14.511Z,22.40
2018-07-09T10:17:45.436Z,23.60
2018-07-09T10:20:16.189Z,23.50
2018-07-09T10:22:46.797Z,23.30
2018-07-09T10:25:17.267Z,25.30
2018-07-09T10:27:48.582Z,24.70
2018-07-09T10:30:18.749Z,25.60
2018-07-09T10:32:49.540Z,25.00
2018-07-09T10:35:20.261Z,25.70
2018-07-09T10:37:51.179Z,25.20
2018-07-09T10:40:22.293Z,24.60
2018-07-09T10:42:52.886Z,24.50
2018-07-09T10:45:23.423Z,24.40
2018-07-09T10:47:54.153Z,24.80
2018-07-09T10:50:24.915Z,25.10
2018-07-09T10:52:55.777Z,25.40
2018-07-09T10:55:26.328Z,24.70
2018-07-09T10:57:56.870Z,25.50
2018-07-09T11:00:27.604Z,26.00
2018-07-09T11:02:58.115Z,25.70
2018-07-09T11:05:28.766Z,24.70
2018-07-09T11:07:59.419Z,25.10
2018-07-09T11:10:30.192Z,25.60
2018-07-09T11:13:01.332Z,25.00
2018-07-09T11:15:32.026Z,25.90
2018-07-09T11:18:02.723Z,26.60
2018-07-09T11:20:33.550Z,26.80
2018-07-09T11:23:04.208Z,26.70
2018-07-09T11:25:34.973Z,26.50
2018-07-09T11:28:05.482Z,25.80
2018-07-09T11:30:36.239Z,28.40
2018-07-09T11:33:07.097Z,27.50
2018-07-09T11:35:37.988Z,28.80
2018-07-09T11:38:09.106Z,30.50
2018-07-09T11:40:40.229Z,31.20
2018-07-09T11:43:11.003Z,31.70
2018-07-09T11:45:41.641Z,31.10
2018-07-09T11:48:13.132Z,30.00
2018-07-09T11:50:44.111Z,30.00
2018-07-09T11:53:14.766Z,31.20
2018-07-09T11:55:45.282Z,30.10
2018-07-09T11:58:15.799Z,31.50
2018-07-09T12:00:46.336Z,31.90
2018-07-09T12:03:17.012Z,30.50
2018-07-09T12:05:47.669Z,29.80
2018-07-09T12:08:18.255Z,30.40
2018-07-09T12:10:49.214Z,32.40
2018-07-09T12:13:19.910Z,31.50
2018-07-09T12:15:50.490Z,30.00
2018-07-09T12:18:21.111Z,30.50
2018-07-09T12:20:51.533Z,29.90
2018-07-09T12:23:22.135Z,30.80
2018-07-09T12:25:52.853Z,31.30
2018-07-09T12:28:23.347Z,30.70
2018-07-09T12:30:54.046Z,32.70
2018-07-09T12:33:24.742Z,33.10
2018-07-09T12:35:55.360Z,33.00
2018-07-09T12:38:25.937Z,31.70
2018-07-09T12:40:56.461Z,31.90
2018-07-09T12:43:27.273Z,30.70
2018-07-09T12:45:57.771Z,31.30
2018-07-09T12:48:28.432Z,32.30
2018-07-09T12:50:58.928Z,32.00
2018-07-09T12:53:30.129Z,31.70
2018-07-09T12:56:00.623Z,32.40
2018-07-09T12:58:31.310Z,33.20
2018-07-09T13:01:01.913Z,34.00
2018-07-09T13:06:02.843Z,32.60
2018-07-09T13:08:33.601Z,33.30
2018-07-09T13:11:04.365Z,32.80
2018-07-09T13:13:35.005Z,32.90
2018-07-09T13:16:05.694Z,32.80
2018-07-09T13:18:36.510Z,34.90
2018-07-09T13:21:07.713Z,32.50
2018-07-09T13:23:38.358Z,33.40
2018-07-09T13:26:08.925Z,34.10
2018-07-09T13:28:39.436Z,34.00
2018-07-09T13:31:10.313Z,34.80
2018-07-09T13:33:40.974Z,35.50
2018-07-09T13:36:11.534Z,33.40
2018-07-09T13:38:42.240Z,35.10
2018-07-09T13:41:12.862Z,34.80
2018-07-09T13:43:43.509Z,35.00
2018-07-09T13:46:14.117Z,35.30
2018-07-09T13:48:44.929Z,35.30
2018-07-09T13:51:15.566Z,35.70
2018-07-09T13:53:46.321Z,34.70
2018-07-09T13:56:17.458Z,35.10
2018-07-09T13:58:48.284Z,35.50
2018-07-09T14:01:19.296Z,36.50
2018-07-09T14:03:49.884Z,36.10
2018-07-09T14:06:20.401Z,36.20
2018-07-09T14:08:51.190Z,35.60
2018-07-09T14:11:21.655Z,36.40
2018-07-09T14:13:53.231Z,36.20
2018-07-09T14:16:23.883Z,36.50
2018-07-09T14:18:54.465Z,35.30
2018-07-09T14:21:25.076Z,35.50
2018-07-09T14:23:55.916Z,36.10
2018-07-09T14:26:26.454Z,36.80
2018-07-09T14:31:27.305Z,35.90
2018-07-09T14:33:57.929Z,36.40
2018-07-09T14:36:28.500Z,36.20
2018-07-09T14:38:59.216Z,36.50
2018-07-09T14:41:29.839Z,36.80
2018-07-09T14:44:00.412Z,36.90
2018-07-09T14:46:31.133Z,37.70
2018-07-09T14:49:03.141Z,37.80
2018-07-09T14:51:33.853Z,37.70
2018-07-09T14:54:04.488Z,37.60
2018-07-09T14:56:35.098Z,37.60
2018-07-09T14:59:05.881Z,38.30
2018-07-09T15:01:37.396Z,38.40
2018-07-09T15:04:08.133Z,38.00
2018-07-09T15:06:38.698Z,37.40
2018-07-09T15:09:09.410Z,36.60
2018-07-09T15:11:40.053Z,36.20
2018-07-09T15:14:11.684Z,36.80
2018-07-09T15:16:43.109Z,36.80
2018-07-09T15:19:13.599Z,37.60
2018-07-09T15:21:44.430Z,35.30
2018-07-09T15:24:15.574Z,35.50
2018-07-09T15:26:46.193Z,36.60
2018-07-09T15:29:16.807Z,36.10
2018-07-09T15:32:04.266Z,36.50
2018-07-09T15:34:35.657Z,35.20
2018-07-09T15:37:06.360Z,35.40
2018-07-09T15:39:37.407Z,36.30
2018-07-09T15:42:08.877Z,36.50
2018-07-09T15:44:39.593Z,37.50
2018-07-09T15:49:40.967Z,37.10
2018-07-09T15:52:11.803Z,38.30
2018-07-09T15:54:42.461Z,38.50
2018-07-09T15:57:14.018Z,37.80
2018-07-09T15:59:44.727Z,37.60
2018-07-09T16:02:15.390Z,37.50
2018-07-09T16:04:47.026Z,37.70
2018-07-09T16:07:18.370Z,38.80
2018-07-09T16:09:48.885Z,37.10
2018-07-09T16:12:19.725Z,38.00
2018-07-09T16:17:21.328Z,38.50
2018-07-09T16:19:53.354Z,39.30
2018-07-09T16:22:23.809Z,39.80
2018-07-09T16:24:54.453Z,40.10
2018-07-09T16:27:25.168Z,40.10
2018-07-09T16:29:55.875Z,39.30
2018-07-09T16:34:56.874Z,39.70
2018-07-09T16:37:27.467Z,38.40
2018-07-09T16:39:58.079Z,39.50
2018-07-09T16:42:29.297Z,39.70
2018-07-09T16:44:59.897Z,40.40
2018-07-09T16:47:30.637Z,38.90
2018-07-09T16:50:01.419Z,39.30
2018-07-09T16:52:32.024Z,39.40
2018-07-09T16:55:02.800Z,39.90
2018-07-09T16:57:33.437Z,40.20
2018-07-09T17:02:34.340Z,40.40
2018-07-09T17:05:05.025Z,40.80
2018-07-09T17:07:35.582Z,41.50
2018-07-09T17:10:06.220Z,41.70
2018-07-09T17:12:37.629Z,41.90
2018-07-09T17:15:08.434Z,42.20
2018-07-09T17:17:38.968Z,41.90
2018-07-09T17:20:09.561Z,42.20
2018-07-09T17:22:40.330Z,42.10
2018-07-09T17:25:10.915Z,41.90
2018-07-09T17:27:42.154Z,42.20
2018-07-09T17:32:42.975Z,42.60
2018-07-09T17:35:13.945Z,42.70
2018-07-09T17:37:45.680Z,43.20
2018-07-09T17:40:16.191Z,44.40
2018-07-09T17:42:46.669Z,44.30
2018-07-09T17:45:17.322Z,44.00
2018-07-09T17:47:48.134Z,44.50
2018-07-09T17:50:18.997Z,44.80
2018-07-09T17:52:49.502Z,44.30
2018-07-09T17:55:20.036Z,44.40
2018-07-09T17:57:50.575Z,44.70
2018-07-09T18:00:21.100Z,45.10
2018-07-09T18:02:51.718Z,45.40
2018-07-09T18:05:22.462Z,46.00
2018-07-09T18:07:53.183Z,45.80
2018-07-09T18:10:24.829Z,46.00
2018-07-09T18:12:55.436Z,46.20
2018-07-09T18:15:25.916Z,46.60
2018-07-09T18:17:56.672Z,46.20
2018-07-09T18:20:27.116Z,46.30
2018-07-09T18:22:57.979Z,46.30
2018-07-09T18:25:28.569Z,47.30
2018-07-09T18:30:30.359Z,46.80
2018-07-09T18:33:01.076Z,47.30
2018-07-09T18:35:32.303Z,47.10
2018-07-09T18:38:03.600Z,47.10
2018-07-09T18:40:34.221Z,47.20
2018-07-09T18:43:04.984Z,47.90
2018-07-09T18:45:35.634Z,47.70
2018-07-09T18:48:06.671Z,48.30
2018-07-09T18:50:37.314Z,48.30
2018-07-09T18:53:07.871Z,48.70
2018-07-09T18:55:38.377Z,48.50
2018-07-09T18:58:09.418Z,48.90
2018-07-09T19:03:10.429Z,49.00
2018-07-09T19:07:05.892Z,49.50
2018-07-09T19:12:09.363Z,50.00
2018-07-09T19:14:46.193Z,49.40
2018-07-09T19:18:10.892Z,49.40
2018-07-09T19:21:29.794Z,49.80
2018-07-09T19:24:00.020Z,50.00
2018-07-09T19:26:28.753Z,50.60
2018-07-09T19:28:57.524Z,50.70
2018-07-09T19:31:26.439Z,51.70
2018-07-09T19:33:55.227Z,51.40
2018-07-09T19:36:24.017Z,51.70
2018-07-09T19:41:21.664Z,52.00
2018-07-09T19:43:50.480Z,52.30
2018-07-09T19:46:19.266Z,52.70
2018-07-09T19:48:48.012Z,52.70
2018-07-09T19:51:16.768Z,52.80
2018-07-09T19:53:45.516Z,52.90
2018-07-09T19:56:14.512Z,53.50
2018-07-09T19:58:43.439Z,53.60
2018-07-09T20:01:12.302Z,53.80
2018-07-09T20:03:41.040Z,54.10
2018-07-09T20:06:09.798Z,54.10
2018-07-09T20:08:43.840Z,55.00
2018-07-09T20:11:17.699Z,55.10
2018-07-09T20:14:01.652Z,54.80
2018-07-09T20:16:35.512Z,55.00
2018-07-09T20:19:04.272Z,55.40
2018-07-09T20:21:33.135Z,56.90
2018-07-09T20:24:01.920Z,56.40
2018-07-09T20:26:30.713Z,56.70
2018-07-09T20:28:59.482Z,56.80
2018-07-09T20:31:28.241Z,57.40
2018-07-09T20:33:57.045Z,57.80
2018-07-09T20:36:25.782Z,57.90
2018-07-09T20:38:54.549Z,58.00
2018-07-09T20:41:23.293Z,58.70
2018-07-09T20:43:52.264Z,58.60
2018-07-09T20:46:21.272Z,58.90
2018-07-09T20:48:50.034Z,59.10
2018-07-09T20:51:18.804Z,59.30
2018-07-09T20:53:47.577Z,59.50
2018-07-09T20:56:16.369Z,59.70
2018-07-09T20:58:45.129Z,60.30
2018-07-09T21:01:13.896Z,60.60
2018-07-09T21:03:42.636Z,61.10
2018-07-09T21:06:11.400Z,61.70
2018-07-09T21:08:40.152Z,61.80
2018-07-09T21:11:08.899Z,62.10
2018-07-09T21:13:37.662Z,62.60
2018-07-09T21:18:35.461Z,63.30
2018-07-09T21:21:04.231Z,63.40
2018-07-09T21:23:33.099Z,63.70
2018-07-09T21:26:01.859Z,64.10
2018-07-09T21:28:30.647Z,64.10
2018-07-09T21:30:59.363Z,64.60
2018-07-09T21:33:28.137Z,65.10
2018-07-09T21:35:56.906Z,65.40
2018-07-09T21:38:25.661Z,65.50
2018-07-09T21:40:54.431Z,65.80
2018-07-09T21:43:23.522Z,66.20
2018-07-09T21:45:58.665Z,66.40
2018-07-09T21:48:29.778Z,66.70
2018-07-09T21:50:56.525Z,67.00
2018-07-09T21:53:26.205Z,67.20
2018-07-09T21:55:55.401Z,67.40
2018-07-09T21:58:24.568Z,67.70
2018-07-09T22:00:53.302Z,68.30
2018-07-09T22:03:22.031Z,68.50
2018-07-09T22:05:50.823Z,68.80
2018-07-09T22:08:19.566Z,69.10
2018-07-09T22:10:48.310Z,69.70
2018-07-09T22:15:45.950Z,70.20
2018-07-09T22:18:14.724Z,70.20
2018-07-09T22:20:43.469Z,70.30
2018-07-09T22:23:12.264Z,70.40
2018-07-09T22:25:40.998Z,70.60
2018-07-09T22:28:09.767Z,71.20
2018-07-09T22:30:40.390Z,71.00
2018-07-09T22:33:11.194Z,71.20
2018-07-09T22:35:41.810Z,71.10
2018-07-09T22:38:12.480Z,71.20
2018-07-09T22:40:43.006Z,71.50
2018-07-09T22:43:30.537Z,72.00
2018-07-09T22:46:01.217Z,72.50
2018-07-09T22:48:32.801Z,72.60
2018-07-09T22:51:03.570Z,73.40
2018-07-09T22:53:35.049Z,73.50
2018-07-09T22:56:13.450Z,73.70
2018-07-09T22:58:44.226Z,73.90
2018-07-09T23:01:15.376Z,74.10
2018-07-09T23:03:46.007Z,74.20
2018-07-09T23:06:16.478Z,74.40
2018-07-09T23:08:47.093Z,74.50
2018-07-09T23:11:34.673Z,74.50
2018-07-09T23:16:50.521Z,74.70
2018-07-09T23:19:41.862Z,75.30
2018-07-09T23:22:17.680Z,75.80
2018-07-09T23:24:46.452Z,76.60
2018-07-09T23:27:15.213Z,76.70
2018-07-09T23:29:43.952Z,77.50
2018-07-09T23:32:12.734Z,77.20
2018-07-09T23:34:41.479Z,77.70
2018-07-09T23:37:10.256Z,78.00
2018-07-09T23:39:38.995Z,78.60
2018-07-09T23:42:07.764Z,79.30
2018-07-09T23:44:36.572Z,78.80
2018-07-09T23:47:05.338Z,79.90
2018-07-09T23:49:34.284Z,81.20
2018-07-09T23:52:03.042Z,81.90
2018-07-09T23:54:31.778Z,82.10
2018-07-09T23:58:16.956Z,82.80
